sensor_id;sensor_type;location;lat;lon;timestamp;P1;durP1;ratioP1;P2;durP2;ratioP2
42146;SDS011;27815;43.410;11.852;2023-02-15T00:03:27;9.70;;;6.72;;
42146;SDS011;27815;43.410;11.852;2023-02-15T00:07:30;11.07;;;7.15;;
42146;SDS011;27815;43.410;11.852;2023-02-15T00:11:33;11.70;;;6.70;;
42146;SDS011;27815;43.410;11.852;2023-02-15T00:15:41;10.52;;;6.50;;
42146;SDS011;27815;43.410;11.852;2023-02-15T00:19:44;10.23;;;5.95;;
42146;SDS011;27815;43.410;11.852;2023-02-15T00:23:47;12.77;;;7.30;;
42146;SDS011;27815;43.410;11.852;2023-02-15T00:27:50;8.57;;;5.00;;
42146;SDS011;27815;43.410;11.852;2023-02-15T00:31:53;9.85;;;5.32;;
42146;SDS011;27815;43.410;11.852;2023-02-15T00:35:59;9.40;;;5.50;;
42146;SDS011;27815;43.410;11.852;2023-02-15T00:40:03;15.35;;;6.50;;
42146;SDS011;27815;43.410;11.852;2023-02-15T00:44:07;10.60;;;6.85;;
42146;SDS011;27815;43.410;11.852;2023-02-15T00:48:10;12.30;;;8.25;;
42146;SDS011;27815;43.410;11.852;2023-02-15T00:52:13;11.50;;;8.20;;
42146;SDS011;27815;43.410;11.852;2023-02-15T00:56:16;13.25;;;8.85;;
42146;SDS011;27815;43.410;11.852;2023-02-15T01:00:18;14.18;;;8.82;;
42146;SDS011;27815;43.410;11.852;2023-02-15T01:04:22;15.00;;;8.48;;
42146;SDS011;27815;43.410;11.852;2023-02-15T01:08:25;14.52;;;8.18;;
42146;SDS011;27815;43.410;11.852;2023-02-15T01:12:28;15.25;;;9.32;;
42146;SDS011;27815;43.410;11.852;2023-02-15T01:16:30;17.65;;;10.32;;
42146;SDS011;27815;43.410;11.852;2023-02-15T01:20:35;13.25;;;7.47;;
42146;SDS011;27815;43.410;11.852;2023-02-15T01:24:41;11.75;;;7.10;;
42146;SDS011;27815;43.410;11.852;2023-02-15T01:28:44;11.45;;;6.72;;
42146;SDS011;27815;43.410;11.852;2023-02-15T01:32:48;13.48;;;7.63;;
42146;SDS011;27815;43.410;11.852;2023-02-15T01:36:50;11.60;;;7.55;;
42146;SDS011;27815;43.410;11.852;2023-02-15T01:40:54;14.50;;;8.77;;
42146;SDS011;27815;43.410;11.852;2023-02-15T01:45:24;11.43;;;7.55;;
42146;SDS011;27815;43.410;11.852;2023-02-15T01:49:27;14.35;;;8.15;;
42146;SDS011;27815;43.410;11.852;2023-02-15T01:53:37;13.00;;;7.93;;
42146;SDS011;27815;43.410;11.852;2023-02-15T01:57:47;12.50;;;6.72;;
42146;SDS011;27815;43.410;11.852;2023-02-15T02:01:52;13.90;;;6.38;;
42146;SDS011;27815;43.410;11.852;2023-02-15T02:05:59;14.85;;;7.38;;
42146;SDS011;27815;43.410;11.852;2023-02-15T02:10:03;14.00;;;8.23;;
42146;SDS011;27815;43.410;11.852;2023-02-15T02:14:07;11.23;;;7.13;;
42146;SDS011;27815;43.410;11.852;2023-02-15T02:18:15;10.90;;;6.80;;
42146;SDS011;27815;43.410;11.852;2023-02-15T02:26:56;10.68;;;6.38;;
42146;SDS011;27815;43.410;11.852;2023-02-15T02:40:07;8.35;;;5.18;;
42146;SDS011;27815;43.410;11.852;2023-02-15T02:48:29;9.60;;;5.13;;
42146;SDS011;27815;43.410;11.852;2023-02-15T02:52:45;8.88;;;4.93;;
42146;SDS011;27815;43.410;11.852;2023-02-15T02:56:49;10.40;;;5.80;;
42146;SDS011;27815;43.410;11.852;2023-02-15T03:01:05;13.70;;;7.72;;
42146;SDS011;27815;43.410;11.852;2023-02-15T03:05:25;20.20;;;10.95;;
42146;SDS011;27815;43.410;11.852;2023-02-15T03:09:32;18.42;;;10.98;;
42146;SDS011;27815;43.410;11.852;2023-02-15T03:13:48;17.05;;;11.38;;
42146;SDS011;27815;43.410;11.852;2023-02-15T03:17:52;17.27;;;10.73;;
42146;SDS011;27815;43.410;11.852;2023-02-15T03:22:03;19.60;;;11.98;;
42146;SDS011;27815;43.410;11.852;2023-02-15T03:26:13;20.73;;;11.95;;
42146;SDS011;27815;43.410;11.852;2023-02-15T03:30:18;16.88;;;11.05;;
42146;SDS011;27815;43.410;11.852;2023-02-15T03:38:43;17.67;;;10.77;;
42146;SDS011;27815;43.410;11.852;2023-02-15T03:51:36;11.73;;;7.00;;
42146;SDS011;27815;43.410;11.852;2023-02-15T03:55:41;12.77;;;7.00;;
42146;SDS011;27815;43.410;11.852;2023-02-15T03:59:47;11.40;;;6.75;;
42146;SDS011;27815;43.410;11.852;2023-02-15T04:04:17;13.50;;;8.15;;
42146;SDS011;27815;43.410;11.852;2023-02-15T04:08:22;12.15;;;6.15;;
42146;SDS011;27815;43.410;11.852;2023-02-15T04:12:45;11.73;;;6.13;;
42146;SDS011;27815;43.410;11.852;2023-02-15T04:16:48;9.98;;;5.75;;
42146;SDS011;27815;43.410;11.852;2023-02-15T04:20:51;12.85;;;6.20;;
42146;SDS011;27815;43.410;11.852;2023-02-15T04:25:13;11.05;;;6.55;;
42146;SDS011;27815;43.410;11.852;2023-02-15T04:29:16;9.93;;;6.43;;
42146;SDS011;27815;43.410;11.852;2023-02-15T04:33:19;11.00;;;5.72;;
42146;SDS011;27815;43.410;11.852;2023-02-15T04:37:22;8.40;;;4.43;;
42146;SDS011;27815;43.410;11.852;2023-02-15T04:41:24;9.07;;;4.38;;
42146;SDS011;27815;43.410;11.852;2023-02-15T04:45:27;12.27;;;7.13;;
42146;SDS011;27815;43.410;11.852;2023-02-15T04:49:30;10.50;;;5.00;;
42146;SDS011;27815;43.410;11.852;2023-02-15T04:53:33;9.48;;;5.03;;
42146;SDS011;27815;43.410;11.852;2023-02-15T04:57:36;9.93;;;5.93;;
42146;SDS011;27815;43.410;11.852;2023-02-15T05:01:39;7.13;;;3.70;;
42146;SDS011;27815;43.410;11.852;2023-02-15T05:05:42;11.38;;;4.85;;
42146;SDS011;27815;43.410;11.852;2023-02-15T05:09:45;14.18;;;5.22;;
42146;SDS011;27815;43.410;11.852;2023-02-15T05:13:48;16.48;;;9.30;;
42146;SDS011;27815;43.410;11.852;2023-02-15T05:17:50;17.02;;;7.20;;
42146;SDS011;27815;43.410;11.852;2023-02-15T05:21:53;11.88;;;6.40;;
42146;SDS011;27815;43.410;11.852;2023-02-15T05:25:56;5.85;;;3.13;;
42146;SDS011;27815;43.410;11.852;2023-02-15T05:30:18;12.73;;;5.90;;
42146;SDS011;27815;43.410;11.852;2023-02-15T05:34:21;8.38;;;3.70;;
42146;SDS011;27815;43.410;11.852;2023-02-15T05:38:23;9.18;;;4.50;;
42146;SDS011;27815;43.410;11.852;2023-02-15T05:42:26;13.27;;;6.75;;
42146;SDS011;27815;43.410;11.852;2023-02-15T05:46:29;11.20;;;6.65;;
42146;SDS011;27815;43.410;11.852;2023-02-15T05:50:32;14.30;;;7.05;;
42146;SDS011;27815;43.410;11.852;2023-02-15T05:54:35;13.45;;;7.18;;
42146;SDS011;27815;43.410;11.852;2023-02-15T05:58:39;11.13;;;5.68;;
42146;SDS011;27815;43.410;11.852;2023-02-15T06:02:43;10.25;;;5.05;;
42146;SDS011;27815;43.410;11.852;2023-02-15T06:06:46;7.70;;;4.40;;
42146;SDS011;27815;43.410;11.852;2023-02-15T06:10:52;7.65;;;4.65;;
42146;SDS011;27815;43.410;11.852;2023-02-15T06:14:54;7.22;;;4.20;;
42146;SDS011;27815;43.410;11.852;2023-02-15T06:18:58;11.35;;;5.47;;
42146;SDS011;27815;43.410;11.852;2023-02-15T06:23:03;8.90;;;4.85;;
42146;SDS011;27815;43.410;11.852;2023-02-15T06:27:06;6.70;;;3.95;;
42146;SDS011;27815;43.410;11.852;2023-02-15T06:31:09;7.00;;;4.13;;
42146;SDS011;27815;43.410;11.852;2023-02-15T06:35:14;8.55;;;4.07;;
42146;SDS011;27815;43.410;11.852;2023-02-15T06:39:17;9.80;;;5.30;;
42146;SDS011;27815;43.410;11.852;2023-02-15T06:43:20;11.07;;;6.80;;
42146;SDS011;27815;43.410;11.852;2023-02-15T06:47:23;15.20;;;8.45;;
42146;SDS011;27815;43.410;11.852;2023-02-15T06:51:26;15.02;;;6.65;;
42146;SDS011;27815;43.410;11.852;2023-02-15T06:55:29;11.55;;;6.47;;
42146;SDS011;27815;43.410;11.852;2023-02-15T06:59:32;13.50;;;7.68;;
42146;SDS011;27815;43.410;11.852;2023-02-15T07:03:35;13.55;;;8.65;;
42146;SDS011;27815;43.410;11.852;2023-02-15T07:07:38;14.98;;;7.78;;
42146;SDS011;27815;43.410;11.852;2023-02-15T07:11:44;14.70;;;8.30;;
42146;SDS011;27815;43.410;11.852;2023-02-15T07:16:05;22.02;;;9.50;;
42146;SDS011;27815;43.410;11.852;2023-02-15T07:20:09;14.38;;;7.15;;
42146;SDS011;27815;43.410;11.852;2023-02-15T07:24:14;13.95;;;7.95;;
42146;SDS011;27815;43.410;11.852;2023-02-15T07:28:17;14.27;;;8.15;;
42146;SDS011;27815;43.410;11.852;2023-02-15T07:32:21;14.00;;;6.72;;
42146;SDS011;27815;43.410;11.852;2023-02-15T07:36:27;10.32;;;5.47;;
42146;SDS011;27815;43.410;11.852;2023-02-15T07:40:30;17.85;;;10.40;;
42146;SDS011;27815;43.410;11.852;2023-02-15T07:44:33;24.80;;;14.52;;
42146;SDS011;27815;43.410;11.852;2023-02-15T07:48:36;25.23;;;13.70;;
42146;SDS011;27815;43.410;11.852;2023-02-15T07:52:40;55.13;;;26.55;;
42146;SDS011;27815;43.410;11.852;2023-02-15T07:56:43;33.47;;;19.13;;
42146;SDS011;27815;43.410;11.852;2023-02-15T08:00:46;38.78;;;21.38;;
42146;SDS011;27815;43.410;11.852;2023-02-15T08:04:58;29.08;;;16.58;;
42146;SDS011;27815;43.410;11.852;2023-02-15T08:09:05;21.50;;;12.70;;
42146;SDS011;27815;43.410;11.852;2023-02-15T08:13:10;25.55;;;14.70;;
42146;SDS011;27815;43.410;11.852;2023-02-15T08:17:13;30.55;;;18.48;;
42146;SDS011;27815;43.410;11.852;2023-02-15T08:21:16;37.58;;;20.98;;
42146;SDS011;27815;43.410;11.852;2023-02-15T08:25:18;35.90;;;21.20;;
42146;SDS011;27815;43.410;11.852;2023-02-15T08:29:22;52.35;;;29.63;;
42146;SDS011;27815;43.410;11.852;2023-02-15T08:33:26;72.18;;;36.33;;
42146;SDS011;27815;43.410;11.852;2023-02-15T08:37:30;55.58;;;30.65;;
42146;SDS011;27815;43.410;11.852;2023-02-15T08:41:34;43.42;;;22.98;;
42146;SDS011;27815;43.410;11.852;2023-02-15T08:45:38;46.63;;;25.48;;
42146;SDS011;27815;43.410;11.852;2023-02-15T08:49:40;42.10;;;23.58;;
42146;SDS011;27815;43.410;11.852;2023-02-15T08:53:44;44.47;;;24.52;;
42146;SDS011;27815;43.410;11.852;2023-02-15T08:57:51;42.78;;;23.90;;
42146;SDS011;27815;43.410;11.852;2023-02-15T09:01:54;30.52;;;18.35;;
42146;SDS011;27815;43.410;11.852;2023-02-15T09:05:58;23.27;;;13.63;;
42146;SDS011;27815;43.410;11.852;2023-02-15T09:10:03;16.00;;;9.73;;
42146;SDS011;27815;43.410;11.852;2023-02-15T09:14:08;19.27;;;11.55;;
42146;SDS011;27815;43.410;11.852;2023-02-15T09:18:16;16.17;;;10.68;;
42146;SDS011;27815;43.410;11.852;2023-02-15T09:22:19;19.55;;;11.38;;
42146;SDS011;27815;43.410;11.852;2023-02-15T09:26:22;21.50;;;12.32;;
42146;SDS011;27815;43.410;11.852;2023-02-15T09:30:26;22.02;;;12.75;;
42146;SDS011;27815;43.410;11.852;2023-02-15T09:34:29;20.30;;;13.25;;
42146;SDS011;27815;43.410;11.852;2023-02-15T09:38:35;27.88;;;16.80;;
42146;SDS011;27815;43.410;11.852;2023-02-15T09:47:13;16.17;;;10.93;;
42146;SDS011;27815;43.410;11.852;2023-02-15T09:55:53;11.98;;;7.10;;
42146;SDS011;27815;43.410;11.852;2023-02-15T10:04:30;11.38;;;6.68;;
42146;SDS011;27815;43.410;11.852;2023-02-15T10:30:22;11.27;;;6.93;;
42146;SDS011;27815;43.410;11.852;2023-02-15T10:39:40;16.92;;;10.30;;
42146;SDS011;27815;43.410;11.852;2023-02-15T10:47:53;12.70;;;8.90;;
42146;SDS011;27815;43.410;11.852;2023-02-15T11:00:52;10.50;;;7.68;;
42146;SDS011;27815;43.410;11.852;2023-02-15T11:09:38;11.45;;;7.45;;
42146;SDS011;27815;43.410;11.852;2023-02-15T11:13:54;10.25;;;6.68;;
42146;SDS011;27815;43.410;11.852;2023-02-15T11:18:19;12.50;;;7.82;;
42146;SDS011;27815;43.410;11.852;2023-02-15T11:22:34;9.85;;;6.22;;
42146;SDS011;27815;43.410;11.852;2023-02-15T11:26:53;11.63;;;6.90;;
42146;SDS011;27815;43.410;11.852;2023-02-15T11:30:58;9.80;;;5.65;;
42146;SDS011;27815;43.410;11.852;2023-02-15T11:39:29;7.97;;;4.82;;
42146;SDS011;27815;43.410;11.852;2023-02-15T11:43:46;8.52;;;4.88;;
42146;SDS011;27815;43.410;11.852;2023-02-15T11:47:54;10.23;;;6.65;;
42146;SDS011;27815;43.410;11.852;2023-02-15T11:51:58;10.82;;;6.60;;
42146;SDS011;27815;43.410;11.852;2023-02-15T11:56:04;14.18;;;7.75;;
42146;SDS011;27815;43.410;11.852;2023-02-15T12:00:37;9.50;;;5.88;;
42146;SDS011;27815;43.410;11.852;2023-02-15T12:04:43;9.10;;;6.30;;
42146;SDS011;27815;43.410;11.852;2023-02-15T12:09:02;9.23;;;5.72;;
42146;SDS011;27815;43.410;11.852;2023-02-15T12:13:24;12.13;;;6.50;;
42146;SDS011;27815;43.410;11.852;2023-02-15T12:17:34;8.73;;;4.97;;
42146;SDS011;27815;43.410;11.852;2023-02-15T12:21:42;8.52;;;5.35;;
42146;SDS011;27815;43.410;11.852;2023-02-15T12:25:50;7.82;;;4.63;;
42146;SDS011;27815;43.410;11.852;2023-02-15T12:30:06;7.43;;;3.88;;
42146;SDS011;27815;43.410;11.852;2023-02-15T12:34:29;7.82;;;4.22;;
42146;SDS011;27815;43.410;11.852;2023-02-15T12:38:35;9.27;;;4.65;;
42146;SDS011;27815;43.410;11.852;2023-02-15T12:42:42;10.80;;;6.05;;
42146;SDS011;27815;43.410;11.852;2023-02-15T12:47:06;10.13;;;6.57;;
42146;SDS011;27815;43.410;11.852;2023-02-15T12:51:18;10.75;;;7.05;;
42146;SDS011;27815;43.410;11.852;2023-02-15T12:55:23;9.10;;;6.03;;
42146;SDS011;27815;43.410;11.852;2023-02-15T12:59:28;9.13;;;6.13;;
42146;SDS011;27815;43.410;11.852;2023-02-15T13:03:31;8.88;;;5.97;;
42146;SDS011;27815;43.410;11.852;2023-02-15T13:07:35;11.25;;;6.53;;
42146;SDS011;27815;43.410;11.852;2023-02-15T13:11:39;12.63;;;6.80;;
42146;SDS011;27815;43.410;11.852;2023-02-15T13:15:46;10.68;;;6.45;;
42146;SDS011;27815;43.410;11.852;2023-02-15T13:19:52;11.93;;;7.30;;
42146;SDS011;27815;43.410;11.852;2023-02-15T13:23:57;11.45;;;6.93;;
42146;SDS011;27815;43.410;11.852;2023-02-15T13:28:04;11.57;;;7.50;;
42146;SDS011;27815;43.410;11.852;2023-02-15T13:32:18;11.85;;;7.78;;
42146;SDS011;27815;43.410;11.852;2023-02-15T13:36:37;11.23;;;7.57;;
42146;SDS011;27815;43.410;11.852;2023-02-15T13:40:47;11.05;;;7.28;;
42146;SDS011;27815;43.410;11.852;2023-02-15T14:11:19;8.93;;;6.47;;
42146;SDS011;27815;43.410;11.852;2023-02-15T14:20:02;11.23;;;6.15;;
42146;SDS011;27815;43.410;11.852;2023-02-15T14:28:41;9.65;;;6.35;;
42146;SDS011;27815;43.410;11.852;2023-02-15T14:32:46;8.82;;;5.70;;
42146;SDS011;27815;43.410;11.852;2023-02-15T14:36:58;9.05;;;5.65;;
42146;SDS011;27815;43.410;11.852;2023-02-15T14:45:21;9.88;;;6.25;;
42146;SDS011;27815;43.410;11.852;2023-02-15T14:49:36;8.10;;;5.40;;
42146;SDS011;27815;43.410;11.852;2023-02-15T14:53:40;11.50;;;5.53;;
42146;SDS011;27815;43.410;11.852;2023-02-15T14:57:55;9.95;;;6.15;;
42146;SDS011;27815;43.410;11.852;2023-02-15T15:06:23;14.52;;;6.55;;
42146;SDS011;27815;43.410;11.852;2023-02-15T15:10:45;10.02;;;6.30;;
42146;SDS011;27815;43.410;11.852;2023-02-15T15:14:49;10.13;;;5.28;;
42146;SDS011;27815;43.410;11.852;2023-02-15T15:18:53;10.95;;;6.00;;
42146;SDS011;27815;43.410;11.852;2023-02-15T15:23:33;14.30;;;7.07;;
42146;SDS011;27815;43.410;11.852;2023-02-15T15:27:52;11.50;;;6.93;;
42146;SDS011;27815;43.410;11.852;2023-02-15T15:31:57;13.60;;;8.98;;
42146;SDS011;27815;43.410;11.852;2023-02-15T15:49:33;12.73;;;7.15;;
42146;SDS011;27815;43.410;11.852;2023-02-15T15:53:49;12.15;;;6.60;;
42146;SDS011;27815;43.410;11.852;2023-02-15T15:57:59;12.38;;;7.05;;
42146;SDS011;27815;43.410;11.852;2023-02-15T16:02:06;20.42;;;12.05;;
42146;SDS011;27815;43.410;11.852;2023-02-15T16:06:13;10.88;;;7.15;;
42146;SDS011;27815;43.410;11.852;2023-02-15T16:10:28;22.67;;;19.45;;
42146;SDS011;27815;43.410;11.852;2023-02-15T16:18:38;13.30;;;9.18;;
42146;SDS011;27815;43.410;11.852;2023-02-15T16:22:49;16.73;;;9.00;;
42146;SDS011;27815;43.410;11.852;2023-02-15T16:27:18;16.13;;;9.77;;
42146;SDS011;27815;43.410;11.852;2023-02-15T16:31:36;14.82;;;7.68;;
42146;SDS011;27815;43.410;11.852;2023-02-15T16:35:39;10.90;;;6.72;;
42146;SDS011;27815;43.410;11.852;2023-02-15T16:40:06;11.77;;;6.82;;
42146;SDS011;27815;43.410;11.852;2023-02-15T16:44:27;12.88;;;6.13;;
42146;SDS011;27815;43.410;11.852;2023-02-15T16:48:35;10.82;;;6.22;;
42146;SDS011;27815;43.410;11.852;2023-02-15T16:52:43;10.35;;;6.30;;
42146;SDS011;27815;43.410;11.852;2023-02-15T16:56:47;11.50;;;6.70;;
42146;SDS011;27815;43.410;11.852;2023-02-15T17:00:50;8.88;;;5.78;;
42146;SDS011;27815;43.410;11.852;2023-02-15T17:09:14;10.23;;;6.38;;
42146;SDS011;27815;43.410;11.852;2023-02-15T17:13:24;9.27;;;6.55;;
42146;SDS011;27815;43.410;11.852;2023-02-15T17:17:28;10.48;;;6.80;;
42146;SDS011;27815;43.410;11.852;2023-02-15T17:21:36;8.27;;;5.65;;
42146;SDS011;27815;43.410;11.852;2023-02-15T17:25:43;12.25;;;7.45;;
42146;SDS011;27815;43.410;11.852;2023-02-15T17:29:47;12.15;;;6.93;;
42146;SDS011;27815;43.410;11.852;2023-02-15T17:33:54;8.73;;;6.30;;
42146;SDS011;27815;43.410;11.852;2023-02-15T17:42:06;12.85;;;7.10;;
42146;SDS011;27815;43.410;11.852;2023-02-15T17:46:09;15.18;;;8.45;;
42146;SDS011;27815;43.410;11.852;2023-02-15T17:50:19;13.48;;;8.40;;
42146;SDS011;27815;43.410;11.852;2023-02-15T17:54:26;15.77;;;8.75;;
42146;SDS011;27815;43.410;11.852;2023-02-15T17:58:48;12.73;;;8.43;;
42146;SDS011;27815;43.410;11.852;2023-02-15T18:02:51;12.45;;;7.50;;
42146;SDS011;27815;43.410;11.852;2023-02-15T18:07:13;14.25;;;8.80;;
42146;SDS011;27815;43.410;11.852;2023-02-15T18:11:36;10.32;;;7.13;;
42146;SDS011;27815;43.410;11.852;2023-02-15T18:15:39;10.95;;;7.43;;
42146;SDS011;27815;43.410;11.852;2023-02-15T18:19:43;10.65;;;7.07;;
42146;SDS011;27815;43.410;11.852;2023-02-15T18:23:47;12.05;;;8.10;;
42146;SDS011;27815;43.410;11.852;2023-02-15T18:27:50;14.32;;;8.70;;
42146;SDS011;27815;43.410;11.852;2023-02-15T18:31:56;12.60;;;7.57;;
42146;SDS011;27815;43.410;11.852;2023-02-15T18:36:00;13.38;;;7.25;;
42146;SDS011;27815;43.410;11.852;2023-02-15T18:40:05;11.10;;;7.28;;
42146;SDS011;27815;43.410;11.852;2023-02-15T18:44:17;13.57;;;7.95;;
42146;SDS011;27815;43.410;11.852;2023-02-15T18:48:20;12.63;;;6.55;;
42146;SDS011;27815;43.410;11.852;2023-02-15T18:52:25;11.57;;;7.13;;
42146;SDS011;27815;43.410;11.852;2023-02-15T18:56:32;12.25;;;7.18;;
42146;SDS011;27815;43.410;11.852;2023-02-15T19:00:36;11.75;;;7.07;;
42146;SDS011;27815;43.410;11.852;2023-02-15T19:04:39;10.02;;;7.18;;
42146;SDS011;27815;43.410;11.852;2023-02-15T19:08:43;14.05;;;9.38;;
42146;SDS011;27815;43.410;11.852;2023-02-15T19:12:48;36.08;;;22.75;;
42146;SDS011;27815;43.410;11.852;2023-02-15T19:16:52;10.45;;;7.70;;
42146;SDS011;27815;43.410;11.852;2023-02-15T19:20:56;17.75;;;11.70;;
42146;SDS011;27815;43.410;11.852;2023-02-15T19:25:00;19.10;;;12.77;;
42146;SDS011;27815;43.410;11.852;2023-02-15T19:29:04;14.55;;;9.35;;
42146;SDS011;27815;43.410;11.852;2023-02-15T19:33:09;13.15;;;8.00;;
42146;SDS011;27815;43.410;11.852;2023-02-15T19:41:31;16.02;;;9.18;;
42146;SDS011;27815;43.410;11.852;2023-02-15T19:45:35;15.90;;;10.45;;
42146;SDS011;27815;43.410;11.852;2023-02-15T19:49:38;12.90;;;8.23;;
42146;SDS011;27815;43.410;11.852;2023-02-15T19:53:41;11.68;;;8.27;;
42146;SDS011;27815;43.410;11.852;2023-02-15T19:57:44;11.90;;;7.93;;
42146;SDS011;27815;43.410;11.852;2023-02-15T20:01:47;20.10;;;15.57;;
42146;SDS011;27815;43.410;11.852;2023-02-15T20:05:50;18.38;;;10.13;;
42146;SDS011;27815;43.410;11.852;2023-02-15T20:09:53;10.82;;;7.45;;
42146;SDS011;27815;43.410;11.852;2023-02-15T20:13:57;11.73;;;7.30;;
42146;SDS011;27815;43.410;11.852;2023-02-15T20:18:00;9.98;;;6.18;;
42146;SDS011;27815;43.410;11.852;2023-02-15T20:22:05;11.65;;;6.70;;
42146;SDS011;27815;43.410;11.852;2023-02-15T20:26:13;11.35;;;6.40;;
42146;SDS011;27815;43.410;11.852;2023-02-15T20:30:20;10.88;;;5.40;;
42146;SDS011;27815;43.410;11.852;2023-02-15T20:34:25;9.10;;;5.17;;
42146;SDS011;27815;43.410;11.852;2023-02-15T20:38:29;9.52;;;5.97;;
42146;SDS011;27815;43.410;11.852;2023-02-15T20:42:33;10.48;;;6.55;;
42146;SDS011;27815;43.410;11.852;2023-02-15T20:46:36;9.82;;;6.03;;
42146;SDS011;27815;43.410;11.852;2023-02-15T20:50:39;12.35;;;6.88;;
42146;SDS011;27815;43.410;11.852;2023-02-15T20:54:42;10.43;;;6.88;;
42146;SDS011;27815;43.410;11.852;2023-02-15T20:58:45;11.13;;;5.75;;
42146;SDS011;27815;43.410;11.852;2023-02-15T21:02:49;14.05;;;7.95;;
42146;SDS011;27815;43.410;11.852;2023-02-15T21:06:58;16.98;;;10.13;;
42146;SDS011;27815;43.410;11.852;2023-02-15T21:11:01;15.80;;;9.52;;
42146;SDS011;27815;43.410;11.852;2023-02-15T21:15:26;12.45;;;8.07;;
42146;SDS011;27815;43.410;11.852;2023-02-15T21:19:29;12.15;;;6.95;;
42146;SDS011;27815;43.410;11.852;2023-02-15T21:23:33;11.70;;;6.82;;
42146;SDS011;27815;43.410;11.852;2023-02-15T21:27:39;10.80;;;7.50;;
42146;SDS011;27815;43.410;11.852;2023-02-15T21:31:42;12.30;;;7.68;;
42146;SDS011;27815;43.410;11.852;2023-02-15T21:35:46;10.63;;;6.70;;
42146;SDS011;27815;43.410;11.852;2023-02-15T21:39:52;12.07;;;6.82;;
42146;SDS011;27815;43.410;11.852;2023-02-15T21:43:54;16.70;;;9.07;;
42146;SDS011;27815;43.410;11.852;2023-02-15T21:48:15;13.85;;;9.52;;
42146;SDS011;27815;43.410;11.852;2023-02-15T21:52:19;12.23;;;8.52;;
42146;SDS011;27815;43.410;11.852;2023-02-15T21:56:25;15.45;;;9.15;;
42146;SDS011;27815;43.410;11.852;2023-02-15T22:00:28;14.75;;;8.80;;
42146;SDS011;27815;43.410;11.852;2023-02-15T22:04:31;17.83;;;9.95;;
42146;SDS011;27815;43.410;11.852;2023-02-15T22:08:34;17.60;;;10.85;;
42146;SDS011;27815;43.410;11.852;2023-02-15T22:12:37;15.25;;;9.18;;
42146;SDS011;27815;43.410;11.852;2023-02-15T22:16:42;16.42;;;8.60;;
42146;SDS011;27815;43.410;11.852;2023-02-15T22:20:45;13.05;;;7.68;;
42146;SDS011;27815;43.410;11.852;2023-02-15T22:24:48;13.27;;;7.93;;
42146;SDS011;27815;43.410;11.852;2023-02-15T22:28:51;13.80;;;8.30;;
42146;SDS011;27815;43.410;11.852;2023-02-15T22:32:55;13.98;;;7.97;;
42146;SDS011;27815;43.410;11.852;2023-02-15T22:36:58;12.70;;;7.45;;
42146;SDS011;27815;43.410;11.852;2023-02-15T22:41:01;22.17;;;14.93;;
42146;SDS011;27815;43.410;11.852;2023-02-15T22:45:08;20.30;;;11.35;;
42146;SDS011;27815;43.410;11.852;2023-02-15T22:49:23;16.60;;;8.75;;
42146;SDS011;27815;43.410;11.852;2023-02-15T22:53:26;14.55;;;8.95;;
42146;SDS011;27815;43.410;11.852;2023-02-15T22:57:29;13.82;;;9.60;;
42146;SDS011;27815;43.410;11.852;2023-02-15T23:01:34;23.88;;;12.93;;
42146;SDS011;27815;43.410;11.852;2023-02-15T23:05:39;28.77;;;15.73;;
42146;SDS011;27815;43.410;11.852;2023-02-15T23:09:42;23.77;;;14.88;;
42146;SDS011;27815;43.410;11.852;2023-02-15T23:13:46;16.65;;;11.70;;
42146;SDS011;27815;43.410;11.852;2023-02-15T23:17:50;15.95;;;10.38;;
42146;SDS011;27815;43.410;11.852;2023-02-15T23:21:53;16.25;;;10.95;;
42146;SDS011;27815;43.410;11.852;2023-02-15T23:25:56;17.70;;;10.35;;
42146;SDS011;27815;43.410;11.852;2023-02-15T23:30:00;17.83;;;10.23;;
42146;SDS011;27815;43.410;11.852;2023-02-15T23:34:14;20.75;;;12.93;;
42146;SDS011;27815;43.410;11.852;2023-02-15T23:38:27;16.38;;;11.55;;
42146;SDS011;27815;43.410;11.852;2023-02-15T23:42:33;19.08;;;12.00;;
42146;SDS011;27815;43.410;11.852;2023-02-15T23:46:38;26.75;;;15.82;;
42146;SDS011;27815;43.410;11.852;2023-02-15T23:50:45;28.00;;;17.13;;
42146;SDS011;27815;43.410;11.852;2023-02-15T23:54:48;23.58;;;13.82;;
42146;SDS011;27815;43.410;11.852;2023-02-15T23:58:51;22.63;;;12.85;;
